sensor_id;sensor_type;location;lat;lon;timestamp;P1;durP1;ratioP1;P2;durP2;ratioP2
85330;SDS011;75738;44.496;11.344;2024-01-15T00:02:15;64.00;;;33.23;;
85330;SDS011;75738;44.496;11.344;2024-01-15T00:04:40;65.72;;;33.33;;
85330;SDS011;75738;44.496;11.344;2024-01-15T00:07:06;67.70;;;33.63;;
85330;SDS011;75738;44.496;11.344;2024-01-15T00:09:32;67.95;;;34.03;;
85330;SDS011;75738;44.496;11.344;2024-01-15T00:11:58;65.00;;;33.63;;
85330;SDS011;75738;44.496;11.344;2024-01-15T00:14:24;69.32;;;35.33;;
85330;SDS011;75738;44.496;11.344;2024-01-15T00:16:49;63.90;;;33.18;;
85330;SDS011;75738;44.496;11.344;2024-01-15T00:19:16;65.40;;;34.20;;
85330;SDS011;75738;44.496;11.344;2024-01-15T00:21:44;71.40;;;35.00;;
85330;SDS011;75738;44.496;11.344;2024-01-15T00:24:09;70.95;;;34.95;;
85330;SDS011;75738;44.496;11.344;2024-01-15T00:26:35;69.50;;;34.88;;
85330;SDS011;75738;44.496;11.344;2024-01-15T00:29:01;70.85;;;35.88;;
85330;SDS011;75738;44.496;11.344;2024-01-15T00:31:26;78.52;;;37.75;;
85330;SDS011;75738;44.496;11.344;2024-01-15T00:33:52;77.67;;;37.15;;
85330;SDS011;75738;44.496;11.344;2024-01-15T00:36:17;78.50;;;37.23;;
85330;SDS011;75738;44.496;11.344;2024-01-15T00:38:46;74.87;;;36.10;;
85330;SDS011;75738;44.496;11.344;2024-01-15T00:41:12;74.35;;;36.38;;
85330;SDS011;75738;44.496;11.344;2024-01-15T00:43:38;75.42;;;36.83;;
85330;SDS011;75738;44.496;11.344;2024-01-15T00:46:04;76.85;;;37.73;;
85330;SDS011;75738;44.496;11.344;2024-01-15T00:48:30;79.27;;;36.68;;
85330;SDS011;75738;44.496;11.344;2024-01-15T00:50:56;81.22;;;37.55;;
85330;SDS011;75738;44.496;11.344;2024-01-15T00:53:22;78.60;;;36.63;;
85330;SDS011;75738;44.496;11.344;2024-01-15T00:55:48;72.47;;;36.08;;
85330;SDS011;75738;44.496;11.344;2024-01-15T00:58:14;70.03;;;35.65;;
85330;SDS011;75738;44.496;11.344;2024-01-15T01:00:39;74.03;;;37.85;;
85330;SDS011;75738;44.496;11.344;2024-01-15T01:03:04;72.37;;;37.35;;
85330;SDS011;75738;44.496;11.344;2024-01-15T01:05:30;75.25;;;38.02;;
85330;SDS011;75738;44.496;11.344;2024-01-15T01:07:55;75.00;;;36.48;;
85330;SDS011;75738;44.496;11.344;2024-01-15T01:10:21;68.20;;;35.13;;
85330;SDS011;75738;44.496;11.344;2024-01-15T01:12:46;71.35;;;35.40;;
85330;SDS011;75738;44.496;11.344;2024-01-15T01:15:12;70.42;;;36.13;;
85330;SDS011;75738;44.496;11.344;2024-01-15T01:17:37;65.70;;;33.85;;
85330;SDS011;75738;44.496;11.344;2024-01-15T01:20:03;65.97;;;34.25;;
85330;SDS011;75738;44.496;11.344;2024-01-15T01:22:31;76.62;;;37.38;;
85330;SDS011;75738;44.496;11.344;2024-01-15T01:24:57;68.60;;;36.03;;
85330;SDS011;75738;44.496;11.344;2024-01-15T01:27:22;74.85;;;36.75;;
85330;SDS011;75738;44.496;11.344;2024-01-15T01:29:48;71.80;;;36.73;;
85330;SDS011;75738;44.496;11.344;2024-01-15T01:32:13;73.22;;;35.65;;
85330;SDS011;75738;44.496;11.344;2024-01-15T01:34:43;78.95;;;38.50;;
85330;SDS011;75738;44.496;11.344;2024-01-15T01:37:07;74.95;;;38.02;;
85330;SDS011;75738;44.496;11.344;2024-01-15T01:39:33;72.62;;;37.23;;
85330;SDS011;75738;44.496;11.344;2024-01-15T01:41:59;72.92;;;36.73;;
85330;SDS011;75738;44.496;11.344;2024-01-15T01:44:24;72.12;;;36.15;;
85330;SDS011;75738;44.496;11.344;2024-01-15T01:46:50;71.90;;;36.53;;
85330;SDS011;75738;44.496;11.344;2024-01-15T01:49:17;74.37;;;36.80;;
85330;SDS011;75738;44.496;11.344;2024-01-15T01:51:43;74.35;;;38.25;;
85330;SDS011;75738;44.496;11.344;2024-01-15T01:54:09;77.95;;;38.42;;
85330;SDS011;75738;44.496;11.344;2024-01-15T01:56:38;72.20;;;36.48;;
85330;SDS011;75738;44.496;11.344;2024-01-15T01:59:03;74.90;;;38.17;;
85330;SDS011;75738;44.496;11.344;2024-01-15T02:01:30;73.80;;;35.98;;
85330;SDS011;75738;44.496;11.344;2024-01-15T02:03:57;81.12;;;38.88;;
85330;SDS011;75738;44.496;11.344;2024-01-15T02:06:23;77.85;;;38.95;;
85330;SDS011;75738;44.496;11.344;2024-01-15T02:08:49;68.70;;;36.95;;
85330;SDS011;75738;44.496;11.344;2024-01-15T02:11:15;73.37;;;37.17;;
85330;SDS011;75738;44.496;11.344;2024-01-15T02:13:41;78.97;;;39.75;;
85330;SDS011;75738;44.496;11.344;2024-01-15T02:16:07;79.30;;;39.58;;
85330;SDS011;75738;44.496;11.344;2024-01-15T02:18:42;82.10;;;39.27;;
85330;SDS011;75738;44.496;11.344;2024-01-15T02:23:34;72.22;;;36.50;;
85330;SDS011;75738;44.496;11.344;2024-01-15T02:25:59;77.12;;;38.17;;
85330;SDS011;75738;44.496;11.344;2024-01-15T02:28:26;74.53;;;37.73;;
85330;SDS011;75738;44.496;11.344;2024-01-15T02:30:51;73.87;;;37.65;;
85330;SDS011;75738;44.496;11.344;2024-01-15T02:33:17;66.97;;;36.90;;
85330;SDS011;75738;44.496;11.344;2024-01-15T02:35:42;76.65;;;38.00;;
85330;SDS011;75738;44.496;11.344;2024-01-15T02:38:08;77.40;;;39.65;;
85330;SDS011;75738;44.496;11.344;2024-01-15T02:40:34;79.25;;;39.10;;
85330;SDS011;75738;44.496;11.344;2024-01-15T02:43:00;77.78;;;38.40;;
85330;SDS011;75738;44.496;11.344;2024-01-15T02:45:25;82.37;;;39.95;;
85330;SDS011;75738;44.496;11.344;2024-01-15T02:47:52;78.78;;;38.92;;
85330;SDS011;75738;44.496;11.344;2024-01-15T02:50:17;75.95;;;38.58;;
85330;SDS011;75738;44.496;11.344;2024-01-15T02:52:43;73.10;;;37.30;;
85330;SDS011;75738;44.496;11.344;2024-01-15T02:55:08;72.65;;;38.00;;
85330;SDS011;75738;44.496;11.344;2024-01-15T02:57:34;76.30;;;39.00;;
85330;SDS011;75738;44.496;11.344;2024-01-15T03:00:00;72.42;;;38.00;;
85330;SDS011;75738;44.496;11.344;2024-01-15T03:02:25;77.17;;;40.05;;
85330;SDS011;75738;44.496;11.344;2024-01-15T03:04:51;77.60;;;39.10;;
85330;SDS011;75738;44.496;11.344;2024-01-15T03:07:16;77.42;;;38.73;;
85330;SDS011;75738;44.496;11.344;2024-01-15T03:09:42;73.35;;;37.28;;
85330;SDS011;75738;44.496;11.344;2024-01-15T03:12:08;75.55;;;38.60;;
85330;SDS011;75738;44.496;11.344;2024-01-15T03:14:33;71.47;;;37.93;;
85330;SDS011;75738;44.496;11.344;2024-01-15T03:17:00;76.47;;;39.00;;
85330;SDS011;75738;44.496;11.344;2024-01-15T03:19:26;71.30;;;36.53;;
85330;SDS011;75738;44.496;11.344;2024-01-15T03:21:51;73.62;;;38.92;;
85330;SDS011;75738;44.496;11.344;2024-01-15T03:24:17;72.70;;;37.40;;
85330;SDS011;75738;44.496;11.344;2024-01-15T03:26:42;73.40;;;39.03;;
85330;SDS011;75738;44.496;11.344;2024-01-15T03:29:08;71.10;;;36.73;;
85330;SDS011;75738;44.496;11.344;2024-01-15T03:31:34;79.95;;;39.23;;
85330;SDS011;75738;44.496;11.344;2024-01-15T03:33:59;72.15;;;36.83;;
85330;SDS011;75738;44.496;11.344;2024-01-15T03:36:25;69.42;;;36.53;;
85330;SDS011;75738;44.496;11.344;2024-01-15T03:38:50;70.65;;;36.95;;
85330;SDS011;75738;44.496;11.344;2024-01-15T03:41:16;72.72;;;36.77;;
85330;SDS011;75738;44.496;11.344;2024-01-15T03:43:41;71.62;;;36.68;;
85330;SDS011;75738;44.496;11.344;2024-01-15T03:46:07;73.17;;;37.00;;
85330;SDS011;75738;44.496;11.344;2024-01-15T03:48:32;72.72;;;38.00;;
85330;SDS011;75738;44.496;11.344;2024-01-15T03:50:59;69.42;;;35.50;;
85330;SDS011;75738;44.496;11.344;2024-01-15T03:53:24;69.65;;;36.38;;
85330;SDS011;75738;44.496;11.344;2024-01-15T03:55:50;69.40;;;35.43;;
85330;SDS011;75738;44.496;11.344;2024-01-15T03:58:15;67.67;;;35.17;;
85330;SDS011;75738;44.496;11.344;2024-01-15T04:00:41;72.50;;;37.80;;
85330;SDS011;75738;44.496;11.344;2024-01-15T04:03:07;68.33;;;36.45;;
85330;SDS011;75738;44.496;11.344;2024-01-15T04:05:33;71.53;;;37.95;;
85330;SDS011;75738;44.496;11.344;2024-01-15T04:07:59;74.92;;;36.73;;
85330;SDS011;75738;44.496;11.344;2024-01-15T04:10:24;71.37;;;37.40;;
85330;SDS011;75738;44.496;11.344;2024-01-15T04:12:50;66.45;;;36.85;;
85330;SDS011;75738;44.496;11.344;2024-01-15T04:15:16;70.10;;;36.45;;
85330;SDS011;75738;44.496;11.344;2024-01-15T04:17:41;69.85;;;37.42;;
85330;SDS011;75738;44.496;11.344;2024-01-15T04:20:07;73.47;;;38.60;;
85330;SDS011;75738;44.496;11.344;2024-01-15T04:22:33;68.05;;;36.33;;
85330;SDS011;75738;44.496;11.344;2024-01-15T04:25:00;75.25;;;38.38;;
85330;SDS011;75738;44.496;11.344;2024-01-15T04:27:25;71.57;;;37.58;;
85330;SDS011;75738;44.496;11.344;2024-01-15T04:29:51;67.62;;;36.53;;
85330;SDS011;75738;44.496;11.344;2024-01-15T04:32:16;75.67;;;39.48;;
85330;SDS011;75738;44.496;11.344;2024-01-15T04:34:42;77.27;;;38.83;;
85330;SDS011;75738;44.496;11.344;2024-01-15T04:37:08;72.25;;;39.73;;
85330;SDS011;75738;44.496;11.344;2024-01-15T04:39:33;72.82;;;38.70;;
85330;SDS011;75738;44.496;11.344;2024-01-15T04:41:59;66.87;;;36.70;;
85330;SDS011;75738;44.496;11.344;2024-01-15T04:44:24;64.72;;;35.48;;
85330;SDS011;75738;44.496;11.344;2024-01-15T04:46:50;66.57;;;36.95;;
85330;SDS011;75738;44.496;11.344;2024-01-15T04:49:15;64.12;;;35.40;;
85330;SDS011;75738;44.496;11.344;2024-01-15T04:51:41;65.15;;;36.15;;
85330;SDS011;75738;44.496;11.344;2024-01-15T04:54:06;64.15;;;34.33;;
85330;SDS011;75738;44.496;11.344;2024-01-15T04:56:32;64.55;;;35.38;;
85330;SDS011;75738;44.496;11.344;2024-01-15T04:58:57;67.53;;;36.20;;
85330;SDS011;75738;44.496;11.344;2024-01-15T05:01:23;64.60;;;35.20;;
85330;SDS011;75738;44.496;11.344;2024-01-15T05:03:48;70.70;;;36.85;;
85330;SDS011;75738;44.496;11.344;2024-01-15T05:06:14;68.22;;;35.40;;
85330;SDS011;75738;44.496;11.344;2024-01-15T05:08:40;67.87;;;37.20;;
85330;SDS011;75738;44.496;11.344;2024-01-15T05:11:06;69.75;;;36.28;;
85330;SDS011;75738;44.496;11.344;2024-01-15T05:13:31;66.55;;;35.35;;
85330;SDS011;75738;44.496;11.344;2024-01-15T05:15:57;67.08;;;36.15;;
85330;SDS011;75738;44.496;11.344;2024-01-15T05:18:22;67.35;;;35.63;;
85330;SDS011;75738;44.496;11.344;2024-01-15T05:20:48;63.23;;;34.90;;
85330;SDS011;75738;44.496;11.344;2024-01-15T05:23:13;67.05;;;35.83;;
85330;SDS011;75738;44.496;11.344;2024-01-15T05:25:39;65.67;;;35.83;;
85330;SDS011;75738;44.496;11.344;2024-01-15T05:28:06;67.25;;;35.28;;
85330;SDS011;75738;44.496;11.344;2024-01-15T05:30:31;62.53;;;34.25;;
85330;SDS011;75738;44.496;11.344;2024-01-15T05:32:57;69.77;;;36.60;;
85330;SDS011;75738;44.496;11.344;2024-01-15T05:35:22;70.50;;;35.23;;
85330;SDS011;75738;44.496;11.344;2024-01-15T05:37:48;74.72;;;36.42;;
85330;SDS011;75738;44.496;11.344;2024-01-15T05:40:14;65.15;;;35.10;;
85330;SDS011;75738;44.496;11.344;2024-01-15T05:42:40;65.47;;;35.43;;
85330;SDS011;75738;44.496;11.344;2024-01-15T05:45:06;65.72;;;35.75;;
85330;SDS011;75738;44.496;11.344;2024-01-15T05:47:33;65.80;;;34.65;;
85330;SDS011;75738;44.496;11.344;2024-01-15T05:49:58;65.42;;;36.23;;
85330;SDS011;75738;44.496;11.344;2024-01-15T05:52:25;70.00;;;35.63;;
85330;SDS011;75738;44.496;11.344;2024-01-15T05:54:51;70.45;;;36.68;;
85330;SDS011;75738;44.496;11.344;2024-01-15T05:57:16;62.30;;;35.20;;
85330;SDS011;75738;44.496;11.344;2024-01-15T05:59:42;64.10;;;35.20;;
85330;SDS011;75738;44.496;11.344;2024-01-15T06:02:08;66.95;;;35.17;;
85330;SDS011;75738;44.496;11.344;2024-01-15T06:04:33;62.40;;;34.75;;
85330;SDS011;75738;44.496;11.344;2024-01-15T06:06:59;62.43;;;34.35;;
85330;SDS011;75738;44.496;11.344;2024-01-15T06:09:24;61.83;;;33.42;;
85330;SDS011;75738;44.496;11.344;2024-01-15T06:11:50;58.90;;;32.13;;
85330;SDS011;75738;44.496;11.344;2024-01-15T06:14:15;64.32;;;33.15;;
85330;SDS011;75738;44.496;11.344;2024-01-15T06:16:41;62.53;;;33.90;;
85330;SDS011;75738;44.496;11.344;2024-01-15T06:19:06;63.58;;;33.98;;
85330;SDS011;75738;44.496;11.344;2024-01-15T06:21:32;69.05;;;35.43;;
85330;SDS011;75738;44.496;11.344;2024-01-15T06:23:57;68.80;;;35.43;;
85330;SDS011;75738;44.496;11.344;2024-01-15T06:26:23;61.40;;;33.25;;
85330;SDS011;75738;44.496;11.344;2024-01-15T06:28:48;66.33;;;33.70;;
85330;SDS011;75738;44.496;11.344;2024-01-15T06:31:14;63.70;;;33.38;;
85330;SDS011;75738;44.496;11.344;2024-01-15T06:33:39;68.33;;;35.13;;
85330;SDS011;75738;44.496;11.344;2024-01-15T06:36:05;61.23;;;34.10;;
85330;SDS011;75738;44.496;11.344;2024-01-15T06:38:31;63.33;;;33.95;;
85330;SDS011;75738;44.496;11.344;2024-01-15T06:40:57;65.47;;;35.58;;
85330;SDS011;75738;44.496;11.344;2024-01-15T06:43:22;57.88;;;33.18;;
85330;SDS011;75738;44.496;11.344;2024-01-15T06:45:48;63.68;;;34.73;;
85330;SDS011;75738;44.496;11.344;2024-01-15T06:48:13;67.67;;;36.15;;
85330;SDS011;75738;44.496;11.344;2024-01-15T06:50:41;64.72;;;34.67;;
85330;SDS011;75738;44.496;11.344;2024-01-15T06:53:07;66.35;;;35.95;;
85330;SDS011;75738;44.496;11.344;2024-01-15T06:55:32;72.08;;;36.45;;
85330;SDS011;75738;44.496;11.344;2024-01-15T06:57:58;75.72;;;38.13;;
85330;SDS011;75738;44.496;11.344;2024-01-15T07:00:24;66.42;;;35.75;;
85330;SDS011;75738;44.496;11.344;2024-01-15T07:02:49;64.92;;;35.17;;
85330;SDS011;75738;44.496;11.344;2024-01-15T07:05:15;67.00;;;36.10;;
85330;SDS011;75738;44.496;11.344;2024-01-15T07:07:40;71.10;;;38.17;;
85330;SDS011;75738;44.496;11.344;2024-01-15T07:10:06;65.03;;;35.03;;
85330;SDS011;75738;44.496;11.344;2024-01-15T07:12:32;64.12;;;34.83;;
85330;SDS011;75738;44.496;11.344;2024-01-15T07:14:57;63.68;;;34.65;;
85330;SDS011;75738;44.496;11.344;2024-01-15T07:17:23;61.95;;;33.63;;
85330;SDS011;75738;44.496;11.344;2024-01-15T07:19:48;60.35;;;33.42;;
85330;SDS011;75738;44.496;11.344;2024-01-15T07:22:14;60.15;;;33.30;;
85330;SDS011;75738;44.496;11.344;2024-01-15T07:24:41;59.88;;;33.10;;
85330;SDS011;75738;44.496;11.344;2024-01-15T07:27:07;59.55;;;33.18;;
85330;SDS011;75738;44.496;11.344;2024-01-15T07:29:34;66.02;;;32.73;;
85330;SDS011;75738;44.496;11.344;2024-01-15T07:32:02;59.05;;;31.73;;
85330;SDS011;75738;44.496;11.344;2024-01-15T07:34:27;58.42;;;31.35;;
85330;SDS011;75738;44.496;11.344;2024-01-15T07:36:53;58.65;;;31.80;;
85330;SDS011;75738;44.496;11.344;2024-01-15T07:39:18;57.65;;;31.27;;
85330;SDS011;75738;44.496;11.344;2024-01-15T07:41:44;56.13;;;31.20;;
85330;SDS011;75738;44.496;11.344;2024-01-15T07:44:09;56.28;;;29.67;;
85330;SDS011;75738;44.496;11.344;2024-01-15T07:46:35;53.85;;;29.85;;
85330;SDS011;75738;44.496;11.344;2024-01-15T07:49:00;55.50;;;29.77;;
85330;SDS011;75738;44.496;11.344;2024-01-15T07:51:26;57.80;;;30.50;;
85330;SDS011;75738;44.496;11.344;2024-01-15T07:53:53;58.17;;;31.37;;
85330;SDS011;75738;44.496;11.344;2024-01-15T07:56:20;63.20;;;33.48;;
85330;SDS011;75738;44.496;11.344;2024-01-15T07:58:46;56.80;;;30.88;;
85330;SDS011;75738;44.496;11.344;2024-01-15T08:01:12;59.33;;;32.70;;
85330;SDS011;75738;44.496;11.344;2024-01-15T08:03:37;55.92;;;30.90;;
85330;SDS011;75738;44.496;11.344;2024-01-15T08:06:03;54.98;;;29.55;;
85330;SDS011;75738;44.496;11.344;2024-01-15T08:08:30;54.35;;;30.45;;
85330;SDS011;75738;44.496;11.344;2024-01-15T08:10:55;51.70;;;30.08;;
85330;SDS011;75738;44.496;11.344;2024-01-15T08:13:21;50.08;;;29.15;;
85330;SDS011;75738;44.496;11.344;2024-01-15T08:15:47;49.77;;;27.67;;
85330;SDS011;75738;44.496;11.344;2024-01-15T08:18:12;50.67;;;28.32;;
85330;SDS011;75738;44.496;11.344;2024-01-15T08:20:38;53.55;;;29.18;;
85330;SDS011;75738;44.496;11.344;2024-01-15T08:23:03;57.33;;;29.90;;
85330;SDS011;75738;44.496;11.344;2024-01-15T08:25:29;57.67;;;32.10;;
85330;SDS011;75738;44.496;11.344;2024-01-15T08:27:56;56.83;;;32.75;;
85330;SDS011;75738;44.496;11.344;2024-01-15T08:30:22;56.20;;;32.35;;
85330;SDS011;75738;44.496;11.344;2024-01-15T08:32:50;59.23;;;32.70;;
85330;SDS011;75738;44.496;11.344;2024-01-15T08:35:15;66.05;;;35.40;;
85330;SDS011;75738;44.496;11.344;2024-01-15T08:37:41;63.87;;;34.08;;
85330;SDS011;75738;44.496;11.344;2024-01-15T08:40:07;63.28;;;33.35;;
85330;SDS011;75738;44.496;11.344;2024-01-15T08:42:33;62.78;;;34.33;;
85330;SDS011;75738;44.496;11.344;2024-01-15T08:44:59;64.92;;;35.23;;
85330;SDS011;75738;44.496;11.344;2024-01-15T08:47:24;63.68;;;34.30;;
85330;SDS011;75738;44.496;11.344;2024-01-15T08:49:50;65.97;;;34.48;;
85330;SDS011;75738;44.496;11.344;2024-01-15T08:52:16;65.72;;;35.55;;
85330;SDS011;75738;44.496;11.344;2024-01-15T08:54:41;58.87;;;34.10;;
85330;SDS011;75738;44.496;11.344;2024-01-15T08:57:07;63.60;;;35.23;;
85330;SDS011;75738;44.496;11.344;2024-01-15T08:59:32;66.02;;;35.40;;
85330;SDS011;75738;44.496;11.344;2024-01-15T09:01:58;61.10;;;34.85;;
85330;SDS011;75738;44.496;11.344;2024-01-15T09:04:23;60.95;;;34.05;;
85330;SDS011;75738;44.496;11.344;2024-01-15T09:06:49;65.30;;;34.05;;
85330;SDS011;75738;44.496;11.344;2024-01-15T09:09:15;64.65;;;35.85;;
85330;SDS011;75738;44.496;11.344;2024-01-15T09:11:40;67.80;;;35.60;;
85330;SDS011;75738;44.496;11.344;2024-01-15T09:14:06;65.97;;;35.13;;
85330;SDS011;75738;44.496;11.344;2024-01-15T09:16:33;64.62;;;35.50;;
85330;SDS011;75738;44.496;11.344;2024-01-15T09:18:58;63.52;;;36.13;;
85330;SDS011;75738;44.496;11.344;2024-01-15T09:21:24;65.57;;;36.23;;
85330;SDS011;75738;44.496;11.344;2024-01-15T09:23:50;72.05;;;37.05;;
85330;SDS011;75738;44.496;11.344;2024-01-15T09:26:16;71.20;;;39.03;;
85330;SDS011;75738;44.496;11.344;2024-01-15T09:28:42;71.22;;;38.40;;
85330;SDS011;75738;44.496;11.344;2024-01-15T09:31:07;73.55;;;39.05;;
85330;SDS011;75738;44.496;11.344;2024-01-15T09:33:33;77.12;;;41.55;;
85330;SDS011;75738;44.496;11.344;2024-01-15T09:36:02;80.57;;;41.85;;
85330;SDS011;75738;44.496;11.344;2024-01-15T09:38:31;78.40;;;42.03;;
85330;SDS011;75738;44.496;11.344;2024-01-15T09:40:57;75.57;;;41.33;;
85330;SDS011;75738;44.496;11.344;2024-01-15T09:43:23;77.37;;;40.40;;
85330;SDS011;75738;44.496;11.344;2024-01-15T09:45:49;73.33;;;39.25;;
85330;SDS011;75738;44.496;11.344;2024-01-15T09:48:15;71.53;;;41.65;;
85330;SDS011;75738;44.496;11.344;2024-01-15T09:50:42;71.47;;;40.40;;
85330;SDS011;75738;44.496;11.344;2024-01-15T09:53:08;72.22;;;40.40;;
85330;SDS011;75738;44.496;11.344;2024-01-15T09:55:39;74.50;;;40.15;;
85330;SDS011;75738;44.496;11.344;2024-01-15T09:58:05;67.35;;;38.00;;
85330;SDS011;75738;44.496;11.344;2024-01-15T10:00:30;72.42;;;39.67;;
85330;SDS011;75738;44.496;11.344;2024-01-15T10:02:58;70.17;;;37.25;;
85330;SDS011;75738;44.496;11.344;2024-01-15T10:05:25;76.90;;;38.10;;
85330;SDS011;75738;44.496;11.344;2024-01-15T10:07:52;68.80;;;38.00;;
85330;SDS011;75738;44.496;11.344;2024-01-15T10:10:19;72.87;;;39.85;;
85330;SDS011;75738;44.496;11.344;2024-01-15T10:12:47;69.58;;;39.55;;
85330;SDS011;75738;44.496;11.344;2024-01-15T10:15:12;74.12;;;41.65;;
85330;SDS011;75738;44.496;11.344;2024-01-15T10:17:38;69.17;;;40.52;;
85330;SDS011;75738;44.496;11.344;2024-01-15T10:20:10;70.30;;;39.30;;
85330;SDS011;75738;44.496;11.344;2024-01-15T10:22:43;75.90;;;41.88;;
85330;SDS011;75738;44.496;11.344;2024-01-15T10:25:13;74.07;;;41.70;;
85330;SDS011;75738;44.496;11.344;2024-01-15T10:27:40;79.27;;;42.62;;
85330;SDS011;75738;44.496;11.344;2024-01-15T10:30:09;69.07;;;39.40;;
85330;SDS011;75738;44.496;11.344;2024-01-15T10:32:35;73.15;;;41.18;;
85330;SDS011;75738;44.496;11.344;2024-01-15T10:35:01;71.37;;;41.35;;
85330;SDS011;75738;44.496;11.344;2024-01-15T10:37:27;73.50;;;40.65;;
85330;SDS011;75738;44.496;11.344;2024-01-15T10:39:52;69.90;;;41.98;;
85330;SDS011;75738;44.496;11.344;2024-01-15T10:42:18;68.35;;;39.78;;
85330;SDS011;75738;44.496;11.344;2024-01-15T10:44:44;68.97;;;41.00;;
85330;SDS011;75738;44.496;11.344;2024-01-15T10:47:13;72.72;;;41.45;;
85330;SDS011;75738;44.496;11.344;2024-01-15T10:49:39;68.92;;;40.28;;
85330;SDS011;75738;44.496;11.344;2024-01-15T10:52:05;67.80;;;39.05;;
85330;SDS011;75738;44.496;11.344;2024-01-15T10:54:31;70.55;;;38.85;;
85330;SDS011;75738;44.496;11.344;2024-01-15T10:56:58;67.20;;;39.35;;
85330;SDS011;75738;44.496;11.344;2024-01-15T10:59:24;66.37;;;38.08;;
85330;SDS011;75738;44.496;11.344;2024-01-15T11:01:52;62.70;;;38.63;;
85330;SDS011;75738;44.496;11.344;2024-01-15T11:04:19;66.53;;;39.35;;
85330;SDS011;75738;44.496;11.344;2024-01-15T11:06:47;66.55;;;39.25;;
85330;SDS011;75738;44.496;11.344;2024-01-15T11:09:15;69.03;;;42.58;;
85330;SDS011;75738;44.496;11.344;2024-01-15T11:11:47;72.45;;;40.52;;
85330;SDS011;75738;44.496;11.344;2024-01-15T11:14:18;71.65;;;40.60;;
85330;SDS011;75738;44.496;11.344;2024-01-15T11:16:57;68.17;;;39.63;;
85330;SDS011;75738;44.496;11.344;2024-01-15T11:19:25;68.17;;;40.17;;
85330;SDS011;75738;44.496;11.344;2024-01-15T11:21:51;67.97;;;39.08;;
85330;SDS011;75738;44.496;11.344;2024-01-15T11:24:35;66.37;;;39.05;;
85330;SDS011;75738;44.496;11.344;2024-01-15T11:27:02;66.17;;;38.25;;
85330;SDS011;75738;44.496;11.344;2024-01-15T11:32:03;64.12;;;39.30;;
85330;SDS011;75738;44.496;11.344;2024-01-15T11:37:23;67.10;;;40.25;;
85330;SDS011;75738;44.496;11.344;2024-01-15T11:39:53;66.42;;;40.92;;
85330;SDS011;75738;44.496;11.344;2024-01-15T11:42:21;64.80;;;39.05;;
85330;SDS011;75738;44.496;11.344;2024-01-15T11:44:47;60.92;;;37.15;;
85330;SDS011;75738;44.496;11.344;2024-01-15T11:47:13;65.45;;;39.08;;
85330;SDS011;75738;44.496;11.344;2024-01-15T11:49:58;66.55;;;38.67;;
85330;SDS011;75738;44.496;11.344;2024-01-15T11:52:29;62.23;;;37.15;;
85330;SDS011;75738;44.496;11.344;2024-01-15T11:57:49;64.65;;;36.98;;
85330;SDS011;75738;44.496;11.344;2024-01-15T12:00:12;60.48;;;35.52;;
85330;SDS011;75738;44.496;11.344;2024-01-15T12:02:46;60.50;;;35.45;;
85330;SDS011;75738;44.496;11.344;2024-01-15T12:05:10;63.98;;;36.38;;
85330;SDS011;75738;44.496;11.344;2024-01-15T12:07:41;62.33;;;35.58;;
85330;SDS011;75738;44.496;11.344;2024-01-15T12:10:08;62.13;;;37.17;;
85330;SDS011;75738;44.496;11.344;2024-01-15T12:15:21;62.25;;;35.70;;
85330;SDS011;75738;44.496;11.344;2024-01-15T12:17:47;67.30;;;37.20;;
85330;SDS011;75738;44.496;11.344;2024-01-15T12:20:13;65.42;;;36.33;;
85330;SDS011;75738;44.496;11.344;2024-01-15T12:22:40;60.05;;;34.30;;
85330;SDS011;75738;44.496;11.344;2024-01-15T12:25:06;59.50;;;34.78;;
85330;SDS011;75738;44.496;11.344;2024-01-15T12:27:32;59.60;;;34.18;;
85330;SDS011;75738;44.496;11.344;2024-01-15T12:29:58;58.90;;;33.90;;
85330;SDS011;75738;44.496;11.344;2024-01-15T12:32:24;61.05;;;34.85;;
85330;SDS011;75738;44.496;11.344;2024-01-15T12:34:50;57.58;;;32.65;;
85330;SDS011;75738;44.496;11.344;2024-01-15T12:37:20;62.78;;;33.65;;
85330;SDS011;75738;44.496;11.344;2024-01-15T12:39:44;57.30;;;33.15;;
85330;SDS011;75738;44.496;11.344;2024-01-15T12:42:10;53.58;;;32.17;;
85330;SDS011;75738;44.496;11.344;2024-01-15T12:44:36;58.02;;;32.90;;
85330;SDS011;75738;44.496;11.344;2024-01-15T12:47:04;57.05;;;32.50;;
85330;SDS011;75738;44.496;11.344;2024-01-15T12:49:30;60.45;;;34.78;;
85330;SDS011;75738;44.496;11.344;2024-01-15T12:51:57;60.52;;;33.48;;
85330;SDS011;75738;44.496;11.344;2024-01-15T12:54:23;57.67;;;32.25;;
85330;SDS011;75738;44.496;11.344;2024-01-15T12:56:49;51.42;;;30.27;;
85330;SDS011;75738;44.496;11.344;2024-01-15T12:59:16;53.15;;;29.57;;
85330;SDS011;75738;44.496;11.344;2024-01-15T13:01:41;52.30;;;31.25;;
85330;SDS011;75738;44.496;11.344;2024-01-15T13:04:07;54.33;;;32.80;;
85330;SDS011;75738;44.496;11.344;2024-01-15T13:23:21;63.13;;;34.33;;
85330;SDS011;75738;44.496;11.344;2024-01-15T13:25:47;61.95;;;34.67;;
85330;SDS011;75738;44.496;11.344;2024-01-15T13:28:13;59.45;;;34.33;;
85330;SDS011;75738;44.496;11.344;2024-01-15T13:30:38;62.17;;;35.20;;
85330;SDS011;75738;44.496;11.344;2024-01-15T13:33:04;59.88;;;34.53;;
85330;SDS011;75738;44.496;11.344;2024-01-15T13:35:30;59.98;;;36.28;;
85330;SDS011;75738;44.496;11.344;2024-01-15T13:37:56;57.15;;;34.63;;
85330;SDS011;75738;44.496;11.344;2024-01-15T13:40:21;61.60;;;36.05;;
85330;SDS011;75738;44.496;11.344;2024-01-15T13:42:47;58.87;;;35.30;;
85330;SDS011;75738;44.496;11.344;2024-01-15T13:45:13;57.95;;;35.25;;
85330;SDS011;75738;44.496;11.344;2024-01-15T13:47:40;62.55;;;36.23;;
85330;SDS011;75738;44.496;11.344;2024-01-15T13:50:07;61.95;;;36.00;;
85330;SDS011;75738;44.496;11.344;2024-01-15T13:52:33;62.62;;;37.40;;
85330;SDS011;75738;44.496;11.344;2024-01-15T13:54:59;68.97;;;38.75;;
85330;SDS011;75738;44.496;11.344;2024-01-15T13:57:25;68.57;;;38.88;;
85330;SDS011;75738;44.496;11.344;2024-01-15T13:59:50;61.10;;;35.90;;
85330;SDS011;75738;44.496;11.344;2024-01-15T14:02:16;62.08;;;35.10;;
85330;SDS011;75738;44.496;11.344;2024-01-15T14:04:41;65.90;;;37.10;;
85330;SDS011;75738;44.496;11.344;2024-01-15T14:07:07;62.43;;;35.92;;
85330;SDS011;75738;44.496;11.344;2024-01-15T14:09:32;59.23;;;35.33;;
85330;SDS011;75738;44.496;11.344;2024-01-15T14:11:58;62.78;;;35.20;;
85330;SDS011;75738;44.496;11.344;2024-01-15T14:14:24;60.95;;;35.15;;
85330;SDS011;75738;44.496;11.344;2024-01-15T14:16:50;60.25;;;36.20;;
85330;SDS011;75738;44.496;11.344;2024-01-15T14:19:16;61.73;;;36.65;;
85330;SDS011;75738;44.496;11.344;2024-01-15T14:21:41;60.52;;;36.42;;
85330;SDS011;75738;44.496;11.344;2024-01-15T14:24:07;61.48;;;35.70;;
85330;SDS011;75738;44.496;11.344;2024-01-15T14:26:32;61.77;;;35.52;;
85330;SDS011;75738;44.496;11.344;2024-01-15T14:28:58;60.50;;;35.10;;
85330;SDS011;75738;44.496;11.344;2024-01-15T14:31:23;62.95;;;36.15;;
85330;SDS011;75738;44.496;11.344;2024-01-15T14:33:51;62.50;;;34.88;;